sensor_id;sensor_type;location;lat;lon;timestamp;P1;P2;P0
30713;PMS7003;17465;47.934;33.430;2024-02-26T00:01:32;18.50;17.00;15.25
30713;PMS7003;17465;47.934;33.430;2024-02-26T00:04:02;26.00;24.25;19.50
30713;PMS7003;17465;47.934;33.430;2024-02-26T00:06:33;33.00;31.50;28.00
30713;PMS7003;17465;47.934;33.430;2024-02-26T00:09:03;29.75;29.00;27.25
30713;PMS7003;17465;47.934;33.430;2024-02-26T00:11:35;36.50;34.00;28.00
30713;PMS7003;17465;47.934;33.430;2024-02-26T00:14:06;43.75;42.25;36.00
30713;PMS7003;17465;47.934;33.430;2024-02-26T00:16:36;37.50;35.75;34.50
30713;PMS7003;17465;47.934;33.430;2024-02-26T00:19:10;36.25;35.00;30.25
30713;PMS7003;17465;47.934;33.430;2024-02-26T00:21:41;32.50;32.00;28.00
30713;PMS7003;17465;47.934;33.430;2024-02-26T00:24:11;35.75;34.25;29.75
30713;PMS7003;17465;47.934;33.430;2024-02-26T00:26:41;41.50;36.50;29.00
30713;PMS7003;17465;47.934;33.430;2024-02-26T00:29:12;43.00;41.00;34.00
30713;PMS7003;17465;47.934;33.430;2024-02-26T00:31:42;39.00;37.00;26.25
30713;PMS7003;17465;47.934;33.430;2024-02-26T00:34:12;27.50;22.50;22.50
30713;PMS7003;17465;47.934;33.430;2024-02-26T00:36:43;30.00;30.00;25.75
30713;PMS7003;17465;47.934;33.430;2024-02-26T00:39:13;33.00;32.75;28.75
30713;PMS7003;17465;47.934;33.430;2024-02-26T00:41:43;39.25;37.50;30.25
30713;PMS7003;17465;47.934;33.430;2024-02-26T00:44:13;39.00;35.75;29.50
30713;PMS7003;17465;47.934;33.430;2024-02-26T00:46:44;37.50;37.50;29.75
30713;PMS7003;17465;47.934;33.430;2024-02-26T00:49:14;39.75;38.00;30.50
30713;PMS7003;17465;47.934;33.430;2024-02-26T00:51:44;32.00;31.25;26.75
30713;PMS7003;17465;47.934;33.430;2024-02-26T00:54:14;33.00;32.75;27.75
30713;PMS7003;17465;47.934;33.430;2024-02-26T00:56:45;31.50;29.50;26.25
30713;PMS7003;17465;47.934;33.430;2024-02-26T00:59:15;36.00;36.00;29.75
30713;PMS7003;17465;47.934;33.430;2024-02-26T01:01:45;44.50;43.25;35.00
30713;PMS7003;17465;47.934;33.430;2024-02-26T01:04:15;52.00;46.25;37.50
30713;PMS7003;17465;47.934;33.430;2024-02-26T01:06:45;45.75;42.75;34.00
30713;PMS7003;17465;47.934;33.430;2024-02-26T01:09:16;45.75;43.50;36.25
30713;PMS7003;17465;47.934;33.430;2024-02-26T01:11:46;53.50;47.50;36.00
30713;PMS7003;17465;47.934;33.430;2024-02-26T01:14:16;47.50;43.75;39.50
30713;PMS7003;17465;47.934;33.430;2024-02-26T01:16:46;51.25;46.00;38.50
30713;PMS7003;17465;47.934;33.430;2024-02-26T01:19:17;51.50;46.00;37.25
30713;PMS7003;17465;47.934;33.430;2024-02-26T01:21:47;45.00;40.75;36.25
30713;PMS7003;17465;47.934;33.430;2024-02-26T01:24:17;51.50;46.50;40.00
30713;PMS7003;17465;47.934;33.430;2024-02-26T01:26:47;51.75;46.00;39.25
30713;PMS7003;17465;47.934;33.430;2024-02-26T01:29:18;54.75;47.75;38.00
30713;PMS7003;17465;47.934;33.430;2024-02-26T01:31:48;55.00;47.50;42.75
30713;PMS7003;17465;47.934;33.430;2024-02-26T01:34:18;54.00;47.25;41.25
30713;PMS7003;17465;47.934;33.430;2024-02-26T01:36:49;38.75;38.50;33.75
30713;PMS7003;17465;47.934;33.430;2024-02-26T01:39:19;35.50;35.50;29.50
30713;PMS7003;17465;47.934;33.430;2024-02-26T01:41:49;31.25;31.25;28.50
30713;PMS7003;17465;47.934;33.430;2024-02-26T01:44:19;25.25;25.25;22.00
30713;PMS7003;17465;47.934;33.430;2024-02-26T01:46:50;20.75;20.75;18.50
30713;PMS7003;17465;47.934;33.430;2024-02-26T01:49:20;12.25;12.00;8.50
30713;PMS7003;17465;47.934;33.430;2024-02-26T01:51:52;36.25;29.75;25.75
30713;PMS7003;17465;47.934;33.430;2024-02-26T01:54:22;25.50;25.00;21.50
30713;PMS7003;17465;47.934;33.430;2024-02-26T01:56:52;29.75;29.00;27.00
30713;PMS7003;17465;47.934;33.430;2024-02-26T01:59:23;29.50;29.25;23.75
30713;PMS7003;17465;47.934;33.430;2024-02-26T02:01:55;25.25;25.25;21.75
30713;PMS7003;17465;47.934;33.430;2024-02-26T02:04:27;30.00;30.00;26.50
30713;PMS7003;17465;47.934;33.430;2024-02-26T02:06:58;35.25;33.00;31.00
30713;PMS7003;17465;47.934;33.430;2024-02-26T02:09:30;30.50;29.25;28.00
30713;PMS7003;17465;47.934;33.430;2024-02-26T02:12:01;32.00;32.00;29.25
30713;PMS7003;17465;47.934;33.430;2024-02-26T02:14:32;36.75;35.00;30.00
30713;PMS7003;17465;47.934;33.430;2024-02-26T02:17:02;44.00;41.00;35.50
30713;PMS7003;17465;47.934;33.430;2024-02-26T02:19:32;44.75;40.50;40.25
30713;PMS7003;17465;47.934;33.430;2024-02-26T02:22:03;56.25;49.50;46.75
30713;PMS7003;17465;47.934;33.430;2024-02-26T02:24:33;61.00;52.50;45.50
30713;PMS7003;17465;47.934;33.430;2024-02-26T02:27:03;61.00;52.25;47.50
30713;PMS7003;17465;47.934;33.430;2024-02-26T02:29:34;53.00;47.50;42.50
30713;PMS7003;17465;47.934;33.430;2024-02-26T02:32:04;49.00;44.25;35.00
30713;PMS7003;17465;47.934;33.430;2024-02-26T02:34:35;58.75;51.25;41.00
30713;PMS7003;17465;47.934;33.430;2024-02-26T02:37:05;88.00;72.75;70.25
30713;PMS7003;17465;47.934;33.430;2024-02-26T02:39:35;68.25;57.50;44.75
30713;PMS7003;17465;47.934;33.430;2024-02-26T02:42:05;70.50;60.50;47.25
30713;PMS7003;17465;47.934;33.430;2024-02-26T02:44:36;78.00;65.25;54.25
30713;PMS7003;17465;47.934;33.430;2024-02-26T02:47:06;78.25;65.25;54.75
30713;PMS7003;17465;47.934;33.430;2024-02-26T02:49:36;97.20;87.00;84.60
30713;PMS7003;17465;47.934;33.430;2024-02-26T02:52:07;104.00;98.40;95.00
30713;PMS7003;17465;47.934;33.430;2024-02-26T02:54:37;95.60;82.20;77.60
30713;PMS7003;17465;47.934;33.430;2024-02-26T02:57:07;80.00;67.20;58.00
30713;PMS7003;17465;47.934;33.430;2024-02-26T02:59:39;83.00;68.80;62.00
30713;PMS7003;17465;47.934;33.430;2024-02-26T03:02:09;95.40;86.20;81.20
30713;PMS7003;17465;47.934;33.430;2024-02-26T03:04:39;87.20;78.40;75.20
30713;PMS7003;17465;47.934;33.430;2024-02-26T03:07:09;81.20;68.60;63.00
30713;PMS7003;17465;47.934;33.430;2024-02-26T03:09:40;73.75;61.75;52.75
30713;PMS7003;17465;47.934;33.430;2024-02-26T03:12:10;57.75;51.00;40.75
30713;PMS7003;17465;47.934;33.430;2024-02-26T03:14:40;72.75;62.00;50.00
30713;PMS7003;17465;47.934;33.430;2024-02-26T03:17:10;99.25;88.00;84.75
30713;PMS7003;17465;47.934;33.430;2024-02-26T03:19:40;91.25;77.25;76.00
30713;PMS7003;17465;47.934;33.430;2024-02-26T03:22:10;70.50;60.25;50.00
30713;PMS7003;17465;47.934;33.430;2024-02-26T03:24:41;48.00;45.00;36.50
30713;PMS7003;17465;47.934;33.430;2024-02-26T03:27:11;46.75;43.50;35.50
30713;PMS7003;17465;47.934;33.430;2024-02-26T03:29:41;54.75;49.00;40.75
30713;PMS7003;17465;47.934;33.430;2024-02-26T03:32:11;48.25;45.00;37.75
30713;PMS7003;17465;47.934;33.430;2024-02-26T03:34:42;130.75;119.00;82.50
30713;PMS7003;17465;47.934;33.430;2024-02-26T03:37:12;80.50;64.00;59.50
30713;PMS7003;17465;47.934;33.430;2024-02-26T03:39:42;71.50;60.75;54.00
30713;PMS7003;17465;47.934;33.430;2024-02-26T03:42:12;65.50;56.00;51.75
30713;PMS7003;17465;47.934;33.430;2024-02-26T03:44:43;69.25;57.00;46.50
30713;PMS7003;17465;47.934;33.430;2024-02-26T03:47:13;67.50;57.25;51.50
30713;PMS7003;17465;47.934;33.430;2024-02-26T03:49:43;84.50;67.75;62.00
30713;PMS7003;17465;47.934;33.430;2024-02-26T03:52:13;71.75;60.25;43.25
30713;PMS7003;17465;47.934;33.430;2024-02-26T03:54:44;90.75;74.75;51.50
30713;PMS7003;17465;47.934;33.430;2024-02-26T03:57:14;60.00;52.00;39.00
30713;PMS7003;17465;47.934;33.430;2024-02-26T03:59:44;69.50;57.75;43.25
30713;PMS7003;17465;47.934;33.430;2024-02-26T04:02:15;60.00;52.50;46.00
30713;PMS7003;17465;47.934;33.430;2024-02-26T04:04:46;67.00;57.25;50.75
30713;PMS7003;17465;47.934;33.430;2024-02-26T04:07:17;68.50;58.50;54.75
30713;PMS7003;17465;47.934;33.430;2024-02-26T04:09:47;77.00;65.25;68.50
30713;PMS7003;17465;47.934;33.430;2024-02-26T04:12:18;49.50;45.50;41.75
30713;PMS7003;17465;47.934;33.430;2024-02-26T04:14:48;54.80;48.40;43.60
30713;PMS7003;17465;47.934;33.430;2024-02-26T04:17:18;60.75;53.50;43.25
30713;PMS7003;17465;47.934;33.430;2024-02-26T04:19:48;71.50;60.25;65.00
30713;PMS7003;17465;47.934;33.430;2024-02-26T04:22:19;75.00;63.00;62.75
30713;PMS7003;17465;47.934;33.430;2024-02-26T04:24:49;74.25;62.25;60.00
30713;PMS7003;17465;47.934;33.430;2024-02-26T04:27:19;59.25;50.50;43.50
30713;PMS7003;17465;47.934;33.430;2024-02-26T04:29:49;57.25;50.00;38.50
30713;PMS7003;17465;47.934;33.430;2024-02-26T04:32:20;50.50;46.25;36.75
30713;PMS7003;17465;47.934;33.430;2024-02-26T04:34:50;59.00;48.50;38.75
30713;PMS7003;17465;47.934;33.430;2024-02-26T04:37:20;56.75;48.00;38.50
30713;PMS7003;17465;47.934;33.430;2024-02-26T04:39:51;68.75;58.25;47.50
30713;PMS7003;17465;47.934;33.430;2024-02-26T04:42:21;88.50;72.75;69.00
30713;PMS7003;17465;47.934;33.430;2024-02-26T04:44:51;89.00;73.00;71.50
30713;PMS7003;17465;47.934;33.430;2024-02-26T04:47:22;95.25;80.75;79.00
30713;PMS7003;17465;47.934;33.430;2024-02-26T04:49:52;93.75;79.50;77.50
30713;PMS7003;17465;47.934;33.430;2024-02-26T04:52:23;92.50;77.75;74.25
30713;PMS7003;17465;47.934;33.430;2024-02-26T04:54:53;71.25;60.50;50.50
30713;PMS7003;17465;47.934;33.430;2024-02-26T04:57:23;46.75;44.00;35.25
30713;PMS7003;17465;47.934;33.430;2024-02-26T04:59:53;53.25;46.50;37.00
30713;PMS7003;17465;47.934;33.430;2024-02-26T05:02:24;49.50;43.50;35.75
30713;PMS7003;17465;47.934;33.430;2024-02-26T05:04:54;49.75;43.25;34.75
30713;PMS7003;17465;47.934;33.430;2024-02-26T05:07:24;56.50;48.75;39.25
30713;PMS7003;17465;47.934;33.430;2024-02-26T05:09:54;85.75;69.00;62.00
30713;PMS7003;17465;47.934;33.430;2024-02-26T05:12:25;86.50;70.25;64.00
30713;PMS7003;17465;47.934;33.430;2024-02-26T05:14:55;84.75;69.25;62.25
30713;PMS7003;17465;47.934;33.430;2024-02-26T05:17:25;83.00;68.75;59.50
30713;PMS7003;17465;47.934;33.430;2024-02-26T05:19:55;87.50;72.50;67.00
30713;PMS7003;17465;47.934;33.430;2024-02-26T05:22:25;100.00;88.75;85.50
30713;PMS7003;17465;47.934;33.430;2024-02-26T05:24:56;98.25;86.00;83.75
30713;PMS7003;17465;47.934;33.430;2024-02-26T05:27:26;84.75;69.00;61.00
30713;PMS7003;17465;47.934;33.430;2024-02-26T05:29:56;60.25;52.25;42.50
30713;PMS7003;17465;47.934;33.430;2024-02-26T05:32:26;88.50;74.00;77.00
30713;PMS7003;17465;47.934;33.430;2024-02-26T05:34:57;86.75;76.00;76.75
30713;PMS7003;17465;47.934;33.430;2024-02-26T05:37:27;60.25;52.75;53.50
30713;PMS7003;17465;47.934;33.430;2024-02-26T05:39:57;56.75;46.00;47.50
30713;PMS7003;17465;47.934;33.430;2024-02-26T05:42:28;35.60;32.80;24.60
30713;PMS7003;17465;47.934;33.430;2024-02-26T05:44:58;30.20;28.60;22.20
30713;PMS7003;17465;47.934;33.430;2024-02-26T05:47:29;29.20;26.60;18.20
30713;PMS7003;17465;47.934;33.430;2024-02-26T05:49:59;17.25;15.50;10.25
30713;PMS7003;17465;47.934;33.430;2024-02-26T05:52:30;16.75;14.25;9.25
30713;PMS7003;17465;47.934;33.430;2024-02-26T05:55:00;11.00;9.00;2.00
30713;PMS7003;17465;47.934;33.430;2024-02-26T05:57:31;4.00;4.00;2.50
30713;PMS7003;17465;47.934;33.430;2024-02-26T06:00:05;10.40;6.20;1.00
30713;PMS7003;17465;47.934;33.430;2024-02-26T06:02:37;8.00;8.00;4.50
30713;PMS7003;17465;47.934;33.430;2024-02-26T06:05:08;8.25;8.00;3.50
30713;PMS7003;17465;47.934;33.430;2024-02-26T06:07:38;10.00;9.00;3.50
30713;PMS7003;17465;47.934;33.430;2024-02-26T06:10:09;13.25;10.50;4.00
30713;PMS7003;17465;47.934;33.430;2024-02-26T06:12:39;9.25;6.50;2.50
30713;PMS7003;17465;47.934;33.430;2024-02-26T06:15:10;9.25;7.50;2.00
30713;PMS7003;17465;47.934;33.430;2024-02-26T06:17:40;7.75;6.25;2.00
30713;PMS7003;17465;47.934;33.430;2024-02-26T06:20:11;12.00;9.50;4.00
30713;PMS7003;17465;47.934;33.430;2024-02-26T06:22:41;12.50;9.50;3.00
30713;PMS7003;17465;47.934;33.430;2024-02-26T06:25:11;11.75;8.25;3.00
30713;PMS7003;17465;47.934;33.430;2024-02-26T06:27:42;11.50;10.25;3.50
30713;PMS7003;17465;47.934;33.430;2024-02-26T06:30:12;8.50;7.00;3.00
30713;PMS7003;17465;47.934;33.430;2024-02-26T06:32:43;11.50;8.25;4.00
30713;PMS7003;17465;47.934;33.430;2024-02-26T06:35:13;10.25;10.25;3.50
30713;PMS7003;17465;47.934;33.430;2024-02-26T06:37:44;6.00;4.50;0.25
30713;PMS7003;17465;47.934;33.430;2024-02-26T06:40:14;9.25;8.75;4.75
30713;PMS7003;17465;47.934;33.430;2024-02-26T06:42:44;13.25;11.50;4.75
30713;PMS7003;17465;47.934;33.430;2024-02-26T06:45:16;0.25;0.00;0.00
30713;PMS7003;17465;47.934;33.430;2024-02-26T06:47:49;12.50;12.50;6.00
30713;PMS7003;17465;47.934;33.430;2024-02-26T06:50:20;16.75;15.25;8.00
30713;PMS7003;17465;47.934;33.430;2024-02-26T06:52:51;16.00;15.00;9.25
30713;PMS7003;17465;47.934;33.430;2024-02-26T06:55:21;15.25;14.00;7.50
30713;PMS7003;17465;47.934;33.430;2024-02-26T06:57:52;9.50;9.50;5.25
30713;PMS7003;17465;47.934;33.430;2024-02-26T07:00:24;13.50;10.75;8.00
30713;PMS7003;17465;47.934;33.430;2024-02-26T07:02:54;13.00;9.25;2.00
30713;PMS7003;17465;47.934;33.430;2024-02-26T07:05:24;11.75;11.50;5.00
30713;PMS7003;17465;47.934;33.430;2024-02-26T07:07:55;10.50;10.00;4.75
30713;PMS7003;17465;47.934;33.430;2024-02-26T07:10:25;9.25;9.25;3.25
30713;PMS7003;17465;47.934;33.430;2024-02-26T07:12:55;12.00;10.75;6.50
30713;PMS7003;17465;47.934;33.430;2024-02-26T07:15:25;17.00;13.50;6.00
30713;PMS7003;17465;47.934;33.430;2024-02-26T07:17:56;12.50;9.00;6.00
30713;PMS7003;17465;47.934;33.430;2024-02-26T07:20:26;9.00;7.00;3.25
30713;PMS7003;17465;47.934;33.430;2024-02-26T07:22:59;10.00;9.00;3.75
30713;PMS7003;17465;47.934;33.430;2024-02-26T07:25:30;14.50;11.25;4.25
30713;PMS7003;17465;47.934;33.430;2024-02-26T07:28:00;12.00;9.25;5.50
30713;PMS7003;17465;47.934;33.430;2024-02-26T07:30:30;9.25;9.00;5.00
30713;PMS7003;17465;47.934;33.430;2024-02-26T07:33:06;13.00;10.75;5.00
30713;PMS7003;17465;47.934;33.430;2024-02-26T07:35:33;12.00;10.00;4.50
30713;PMS7003;17465;47.934;33.430;2024-02-26T07:38:03;10.25;10.25;6.00
30713;PMS7003;17465;47.934;33.430;2024-02-26T07:40:38;16.50;15.00;8.25
30713;PMS7003;17465;47.934;33.430;2024-02-26T07:43:10;26.25;25.00;20.00
30713;PMS7003;17465;47.934;33.430;2024-02-26T07:45:40;10.00;7.00;4.00
30713;PMS7003;17465;47.934;33.430;2024-02-26T07:48:10;15.25;14.25;7.00
30713;PMS7003;17465;47.934;33.430;2024-02-26T07:50:40;9.50;9.00;5.00
30713;PMS7003;17465;47.934;33.430;2024-02-26T07:53:11;18.50;15.00;10.00
30713;PMS7003;17465;47.934;33.430;2024-02-26T07:55:41;9.50;9.50;5.00
30713;PMS7003;17465;47.934;33.430;2024-02-26T07:58:11;9.75;9.75;5.75
30713;PMS7003;17465;47.934;33.430;2024-02-26T08:00:42;10.00;10.00;5.75
30713;PMS7003;17465;47.934;33.430;2024-02-26T08:03:12;15.00;15.00;8.25
30713;PMS7003;17465;47.934;33.430;2024-02-26T08:05:44;12.00;10.50;7.00
30713;PMS7003;17465;47.934;33.430;2024-02-26T08:08:18;15.75;14.25;7.00
30713;PMS7003;17465;47.934;33.430;2024-02-26T08:10:49;10.75;10.75;6.25
30713;PMS7003;17465;47.934;33.430;2024-02-26T08:13:21;14.00;12.50;7.75
30713;PMS7003;17465;47.934;33.430;2024-02-26T08:15:58;15.00;14.00;7.00
30713;PMS7003;17465;47.934;33.430;2024-02-26T08:18:32;9.00;8.75;5.00
30713;PMS7003;17465;47.934;33.430;2024-02-26T08:21:04;12.75;12.75;8.00
30713;PMS7003;17465;47.934;33.430;2024-02-26T08:23:35;16.00;11.50;7.25
30713;PMS7003;17465;47.934;33.430;2024-02-26T08:26:05;14.75;10.75;6.75
30713;PMS7003;17465;47.934;33.430;2024-02-26T08:28:36;84.80;77.40;70.00
30713;PMS7003;17465;47.934;33.430;2024-02-26T08:31:07;144.60;144.60;141.60
30713;PMS7003;17465;47.934;33.430;2024-02-26T08:33:37;60.25;50.75;46.50
30713;PMS7003;17465;47.934;33.430;2024-02-26T08:36:08;19.25;18.50;15.00
30713;PMS7003;17465;47.934;33.430;2024-02-26T08:38:39;12.00;12.00;4.00
30713;PMS7003;17465;47.934;33.430;2024-02-26T08:41:09;9.50;8.25;2.75
30713;PMS7003;17465;47.934;33.430;2024-02-26T08:43:39;12.00;12.00;6.00
30713;PMS7003;17465;47.934;33.430;2024-02-26T08:46:10;14.75;11.75;6.50
30713;PMS7003;17465;47.934;33.430;2024-02-26T08:48:42;12.25;10.75;3.25
30713;PMS7003;17465;47.934;33.430;2024-02-26T08:51:12;11.50;11.50;6.00
30713;PMS7003;17465;47.934;33.430;2024-02-26T08:53:42;18.50;15.75;10.50
30713;PMS7003;17465;47.934;33.430;2024-02-26T08:56:13;14.50;12.75;6.25
30713;PMS7003;17465;47.934;33.430;2024-02-26T08:58:43;11.50;11.50;5.50
30713;PMS7003;17465;47.934;33.430;2024-02-26T09:01:14;11.50;11.50;6.25
30713;PMS7003;17465;47.934;33.430;2024-02-26T09:03:45;12.50;12.50;7.25
30713;PMS7003;17465;47.934;33.430;2024-02-26T09:06:16;15.50;14.25;8.50
30713;PMS7003;17465;47.934;33.430;2024-02-26T09:08:46;4.75;4.00;3.25
30713;PMS7003;17465;47.934;33.430;2024-02-26T09:11:17;13.00;11.00;6.50
30713;PMS7003;17465;47.934;33.430;2024-02-26T09:13:47;18.75;16.75;10.25
30713;PMS7003;17465;47.934;33.430;2024-02-26T09:16:19;14.75;13.75;9.00
30713;PMS7003;17465;47.934;33.430;2024-02-26T09:18:52;16.50;15.25;10.25
30713;PMS7003;17465;47.934;33.430;2024-02-26T09:21:28;14.25;11.25;5.50
30713;PMS7003;17465;47.934;33.430;2024-02-26T09:23:54;15.75;15.50;9.25
30713;PMS7003;17465;47.934;33.430;2024-02-26T09:26:25;9.75;9.25;6.00
30713;PMS7003;17465;47.934;33.430;2024-02-26T09:28:55;18.25;14.50;9.50
30713;PMS7003;17465;47.934;33.430;2024-02-26T09:31:26;20.50;19.50;12.75
30713;PMS7003;17465;47.934;33.430;2024-02-26T09:33:56;14.00;13.50;9.25
30713;PMS7003;17465;47.934;33.430;2024-02-26T09:36:28;13.50;11.00;7.25
30713;PMS7003;17465;47.934;33.430;2024-02-26T09:38:59;14.75;14.75;10.50
30713;PMS7003;17465;47.934;33.430;2024-02-26T09:41:30;11.75;11.75;6.25
30713;PMS7003;17465;47.934;33.430;2024-02-26T09:44:00;12.75;12.25;9.25
30713;PMS7003;17465;47.934;33.430;2024-02-26T09:46:34;19.25;18.50;12.00
30713;PMS7003;17465;47.934;33.430;2024-02-26T09:49:05;17.50;17.50;12.50
30713;PMS7003;17465;47.934;33.430;2024-02-26T09:51:37;17.75;17.75;12.75
30713;PMS7003;17465;47.934;33.430;2024-02-26T09:54:10;16.00;14.75;9.75
30713;PMS7003;17465;47.934;33.430;2024-02-26T09:56:44;16.75;16.75;10.75
30713;PMS7003;17465;47.934;33.430;2024-02-26T09:59:35;15.75;14.25;8.00
30713;PMS7003;17465;47.934;33.430;2024-02-26T10:01:52;11.50;10.00;5.00
30713;PMS7003;17465;47.934;33.430;2024-02-26T10:04:28;19.25;17.50;10.75
30713;PMS7003;17465;47.934;33.430;2024-02-26T10:06:59;14.75;13.00;7.75
30713;PMS7003;17465;47.934;33.430;2024-02-26T10:09:32;14.00;14.00;6.25
30713;PMS7003;17465;47.934;33.430;2024-02-26T10:12:05;21.00;19.75;9.00
30713;PMS7003;17465;47.934;33.430;2024-02-26T10:14:40;12.00;10.50;10.00
30713;PMS7003;17465;47.934;33.430;2024-02-26T10:17:12;17.50;17.00;13.75
30713;PMS7003;17465;47.934;33.430;2024-02-26T10:19:43;20.00;20.00;12.00
30713;PMS7003;17465;47.934;33.430;2024-02-26T10:22:16;18.00;14.00;8.75
30713;PMS7003;17465;47.934;33.430;2024-02-26T10:24:46;13.00;12.50;7.00
30713;PMS7003;17465;47.934;33.430;2024-02-26T10:27:24;12.75;11.75;7.25
30713;PMS7003;17465;47.934;33.430;2024-02-26T10:29:56;15.50;14.50;8.00
30713;PMS7003;17465;47.934;33.430;2024-02-26T10:32:26;14.25;12.00;8.00
30713;PMS7003;17465;47.934;33.430;2024-02-26T10:34:57;13.75;13.75;7.00
30713;PMS7003;17465;47.934;33.430;2024-02-26T10:37:28;11.50;11.50;5.75
30713;PMS7003;17465;47.934;33.430;2024-02-26T10:39:58;16.25;14.00;7.50
30713;PMS7003;17465;47.934;33.430;2024-02-26T10:42:30;15.75;15.00;9.00
30713;PMS7003;17465;47.934;33.430;2024-02-26T10:45:02;14.50;13.00;6.00
30713;PMS7003;17465;47.934;33.430;2024-02-26T10:47:40;13.75;10.50;7.75
30713;PMS7003;17465;47.934;33.430;2024-02-26T10:50:09;21.50;18.50;10.25
30713;PMS7003;17465;47.934;33.430;2024-02-26T10:52:38;18.50;15.00;10.75
30713;PMS7003;17465;47.934;33.430;2024-02-26T10:55:12;12.75;11.75;6.00
30713;PMS7003;17465;47.934;33.430;2024-02-26T10:57:46;9.00;9.00;6.25
30713;PMS7003;17465;47.934;33.430;2024-02-26T11:00:19;9.75;9.75;7.25
30713;PMS7003;17465;47.934;33.430;2024-02-26T11:02:50;15.00;10.25;6.50
30713;PMS7003;17465;47.934;33.430;2024-02-26T11:05:21;12.75;10.75;6.25
30713;PMS7003;17465;47.934;33.430;2024-02-26T11:07:53;9.75;8.25;6.50
30713;PMS7003;17465;47.934;33.430;2024-02-26T11:10:47;15.75;14.50;8.00
30713;PMS7003;17465;47.934;33.430;2024-02-26T11:13:18;14.50;12.75;8.25
30713;PMS7003;17465;47.934;33.430;2024-02-26T11:15:51;11.25;10.75;6.00
30713;PMS7003;17465;47.934;33.430;2024-02-26T11:18:26;7.25;5.50;4.00
30713;PMS7003;17465;47.934;33.430;2024-02-26T11:20:58;7.25;6.25;5.00
30713;PMS7003;17465;47.934;33.430;2024-02-26T11:23:30;14.75;13.25;8.00
30713;PMS7003;17465;47.934;33.430;2024-02-26T11:26:05;11.00;11.00;7.00
30713;PMS7003;17465;47.934;33.430;2024-02-26T11:28:33;11.25;11.00;6.50
30713;PMS7003;17465;47.934;33.430;2024-02-26T11:31:05;10.00;10.00;7.00
30713;PMS7003;17465;47.934;33.430;2024-02-26T11:33:37;13.25;13.25;10.00
30713;PMS7003;17465;47.934;33.430;2024-02-26T11:36:11;11.50;11.50;7.25
30713;PMS7003;17465;47.934;33.430;2024-02-26T11:38:42;8.00;8.00;4.00
30713;PMS7003;17465;47.934;33.430;2024-02-26T11:41:13;11.50;10.50;6.25
30713;PMS7003;17465;47.934;33.430;2024-02-26T11:43:57;10.00;10.00;6.25
30713;PMS7003;17465;47.934;33.430;2024-02-26T11:46:29;14.00;12.25;7.50
30713;PMS7003;17465;47.934;33.430;2024-02-26T11:49:02;14.00;12.25;7.50
30713;PMS7003;17465;47.934;33.430;2024-02-26T11:51:34;11.50;9.50;6.25
30713;PMS7003;17465;47.934;33.430;2024-02-26T11:54:13;16.25;12.75;6.25
30713;PMS7003;17465;47.934;33.430;2024-02-26T11:56:49;16.75;14.75;8.00
30713;PMS7003;17465;47.934;33.430;2024-02-26T11:59:45;13.75;11.25;8.00
30713;PMS7003;17465;47.934;33.430;2024-02-26T12:02:09;13.50;12.50;7.00
30713;PMS7003;17465;47.934;33.430;2024-02-26T12:04:41;14.75;11.50;6.50
30713;PMS7003;17465;47.934;33.430;2024-02-26T12:07:17;12.25;10.50;5.75
30713;PMS7003;17465;47.934;33.430;2024-02-26T12:09:48;7.50;7.25;5.75
30713;PMS7003;17465;47.934;33.430;2024-02-26T12:12:18;6.00;4.50;2.00
30713;PMS7003;17465;47.934;33.430;2024-02-26T12:14:58;5.00;5.00;2.75
30713;PMS7003;17465;47.934;33.430;2024-02-26T12:17:29;14.50;14.00;8.25
30713;PMS7003;17465;47.934;33.430;2024-02-26T12:20:14;7.00;6.25;4.25
30713;PMS7003;17465;47.934;33.430;2024-02-26T12:22:40;14.00;12.75;7.25
30713;PMS7003;17465;47.934;33.430;2024-02-26T12:25:13;15.50;13.50;7.50
30713;PMS7003;17465;47.934;33.430;2024-02-26T12:27:44;12.50;11.50;7.25
30713;PMS7003;17465;47.934;33.430;2024-02-26T12:30:14;13.75;13.50;9.25
30713;PMS7003;17465;47.934;33.430;2024-02-26T12:32:51;10.50;10.00;3.75
30713;PMS7003;17465;47.934;33.430;2024-02-26T12:35:18;11.75;11.25;5.50
30713;PMS7003;17465;47.934;33.430;2024-02-26T12:37:49;15.75;15.75;8.00
30713;PMS7003;17465;47.934;33.430;2024-02-26T12:40:20;15.75;13.00;7.50
30713;PMS7003;17465;47.934;33.430;2024-02-26T12:43:10;14.75;12.50;7.25
30713;PMS7003;17465;47.934;33.430;2024-02-26T12:45:40;7.00;7.00;4.25
30713;PMS7003;17465;47.934;33.430;2024-02-26T12:48:12;9.00;9.00;6.00
30713;PMS7003;17465;47.934;33.430;2024-02-26T12:50:46;15.75;13.50;8.25
30713;PMS7003;17465;47.934;33.430;2024-02-26T12:53:17;13.00;11.50;6.25
30713;PMS7003;17465;47.934;33.430;2024-02-26T12:55:48;14.25;13.25;7.75
30713;PMS7003;17465;47.934;33.430;2024-02-26T12:58:39;10.25;10.25;6.50
30713;PMS7003;17465;47.934;33.430;2024-02-26T13:01:15;14.50;12.50;5.00
30713;PMS7003;17465;47.934;33.430;2024-02-26T13:03:44;11.25;8.00;4.75
30713;PMS7003;17465;47.934;33.430;2024-02-26T13:06:16;15.25;11.75;7.75
30713;PMS7003;17465;47.934;33.430;2024-02-26T13:08:47;11.25;10.25;6.00
30713;PMS7003;17465;47.934;33.430;2024-02-26T13:11:18;11.75;10.75;7.00
30713;PMS7003;17465;47.934;33.430;2024-02-26T13:13:49;13.50;11.75;6.00
30713;PMS7003;17465;47.934;33.430;2024-02-26T13:16:19;9.75;9.25;5.50
30713;PMS7003;17465;47.934;33.430;2024-02-26T13:18:52;12.75;10.25;4.75
30713;PMS7003;17465;47.934;33.430;2024-02-26T13:21:23;11.75;10.25;5.00
30713;PMS7003;17465;47.934;33.430;2024-02-26T13:23:54;6.25;4.50;2.00
30713;PMS7003;17465;47.934;33.430;2024-02-26T13:26:24;11.00;11.00;6.00
30713;PMS7003;17465;47.934;33.430;2024-02-26T13:29:03;11.25;10.25;6.75
30713;PMS7003;17465;47.934;33.430;2024-02-26T13:31:39;12.50;12.00;6.00
30713;PMS7003;17465;47.934;33.430;2024-02-26T13:34:22;11.00;11.00;7.25
30713;PMS7003;17465;47.934;33.430;2024-02-26T13:36:56;11.50;11.50;6.00
30713;PMS7003;17465;47.934;33.430;2024-02-26T13:39:27;10.25;10.25;4.75
30713;PMS7003;17465;47.934;33.430;2024-02-26T13:41:58;14.00;13.00;8.00
30713;PMS7003;17465;47.934;33.430;2024-02-26T13:44:29;13.25;10.75;7.00
30713;PMS7003;17465;47.934;33.430;2024-02-26T13:46:59;11.00;11.00;7.25
30713;PMS7003;17465;47.934;33.430;2024-02-26T13:49:30;10.50;8.75;5.50
30713;PMS7003;17465;47.934;33.430;2024-02-26T13:52:00;10.00;10.00;5.50
30713;PMS7003;17465;47.934;33.430;2024-02-26T13:54:31;11.00;9.75;5.75
30713;PMS7003;17465;47.934;33.430;2024-02-26T13:57:02;8.50;8.50;4.00
30713;PMS7003;17465;47.934;33.430;2024-02-26T13:59:36;11.25;10.00;5.75
30713;PMS7003;17465;47.934;33.430;2024-02-26T14:02:08;10.75;10.75;5.75
30713;PMS7003;17465;47.934;33.430;2024-02-26T14:04:39;13.50;13.50;8.00
30713;PMS7003;17465;47.934;33.430;2024-02-26T14:07:10;10.50;10.00;6.00